Time;durP1;ratioP1;P1;durP2;ratioP2;P2;SDS_P1;SDS_P2;PMS_P1;PMS_P2;Temp;Humidity;BMP_temperature;BMP_pressure;BME280_temperature;BME280_humidity;BME280_pressure;Samples;Min_cycle;Max_cycle;Signal;HPM_P1;HPM_P2
2022/07/28 00:01:58;;;;;;;8.13;4.78;;;16.40;99.90;;;;;;4992488;28;20070;-73
2022/07/28 00:04:24;;;;;;;7.90;4.72;;;16.40;99.90;;;;;;5010170;28;20022;-73
2022/07/28 00:06:49;;;;;;;6.03;4.88;;;16.40;99.90;;;;;;5010328;28;20475;-74
2022/07/28 00:09:15;;;;;;;9.40;5.78;;;16.40;99.90;;;;;;5009932;28;20112;-73
2022/07/28 00:11:40;;;;;;;5.85;4.90;;;16.40;99.90;;;;;;4992411;28;20033;-73
2022/07/28 00:14:06;;;;;;;5.95;5.32;;;16.30;99.90;;;;;;5000278;28;20034;-74
2022/07/28 00:16:31;;;;;;;7.72;5.13;;;16.30;99.90;;;;;;5010229;28;20026;-74
2022/07/28 00:18:57;;;;;;;9.98;5.70;;;16.30;99.90;;;;;;5009764;28;20487;-73
2022/07/28 00:21:23;;;;;;;6.13;4.65;;;16.30;99.90;;;;;;5009870;28;20022;-73
2022/07/28 00:23:48;;;;;;;11.23;5.47;;;16.30;99.90;;;;;;4992333;28;20030;-74
2022/07/28 00:26:14;;;;;;;8.70;5.07;;;16.20;99.90;;;;;;4992556;28;20262;-74
2022/07/28 00:28:39;;;;;;;6.97;5.15;;;16.30;99.90;;;;;;5009976;28;20029;-74
2022/07/28 00:31:05;;;;;;;8.10;5.45;;;16.20;99.90;;;;;;5009840;28;20034;-74
2022/07/28 00:33:31;;;;;;;7.38;5.03;;;16.20;99.90;;;;;;4995920;28;20029;-73
2022/07/28 00:35:56;;;;;;;6.00;5.22;;;16.10;99.90;;;;;;5013410;28;20030;-73
2022/07/28 00:38:22;;;;;;;9.63;5.65;;;16.10;99.90;;;;;;5013259;28;20481;-74
2022/07/28 00:43:32;;;;;;;7.18;5.30;;;16.10;99.90;;;;;;5013465;28;20032;-73
2022/07/28 00:45:57;;;;;;;6.22;5.50;;;16.10;99.90;;;;;;5013434;28;20100;-74
2022/07/28 00:48:23;;;;;;;8.90;5.85;;;16.10;99.90;;;;;;5013117;28;20026;-74
2022/07/28 00:50:50;;;;;;;7.45;5.00;;;16.10;99.90;;;;;;5013097;28;20121;-74
2022/07/28 00:53:16;;;;;;;10.10;5.72;;;16.00;99.90;;;;;;5013246;28;20033;-74
2022/07/28 00:55:42;;;;;;;9.52;5.50;;;16.00;99.90;;;;;;5013025;28;20356;-75
2022/07/28 00:58:07;;;;;;;7.68;5.35;;;16.00;99.90;;;;;;5013174;28;20030;-75
2022/07/28 01:00:33;;;;;;;7.25;5.70;;;15.90;99.90;;;;;;4995114;28;20065;-75
2022/07/28 01:02:58;;;;;;;6.22;5.35;;;15.90;99.90;;;;;;5013308;28;20048;-74
2022/07/28 01:05:27;;;;;;;6.97;5.13;;;15.90;99.90;;;;;;5013076;28;20022;-75
2022/07/28 01:08:02;;;;;;;12.68;5.43;;;15.90;99.90;;;;;;5022378;28;20025;-74
2022/07/28 01:10:45;;;;;;;;;;;15.80;99.90;;;;;;5024349;28;20025;-75
2022/07/28 01:13:24;;;;;;;10.68;6.90;;;15.80;99.90;;;;;;5009894;28;20282;-75
2022/07/28 01:16:10;;;;;;;8.35;6.07;;;15.80;99.90;;;;;;5004310;28;20021;-75
2022/07/28 01:18:51;;;;;;;7.88;6.25;;;15.70;99.90;;;;;;5012386;28;20049;-74
2022/07/28 01:21:24;;;;;;;10.32;8.13;;;15.70;99.90;;;;;;5012928;28;20635;-74
2022/07/28 01:24:13;;;;;;;10.68;6.35;;;15.60;99.90;;;;;;5013672;28;20097;-75
2022/07/28 01:27:02;;;;;;;13.15;7.28;;;15.60;99.90;;;;;;5013793;28;20380;-75
2022/07/28 01:29:35;;;;;;;7.65;6.85;;;15.60;99.90;;;;;;5014397;28;20102;-74
2022/07/28 01:32:12;;;;;;;13.82;8.60;;;15.60;99.90;;;;;;5001180;28;20022;-74
2022/07/28 01:34:48;;;;;;;7.03;6.20;;;15.50;99.90;;;;;;5013976;28;20086;-74
2022/07/28 01:37:23;;;;;;;9.27;7.07;;;15.50;99.90;;;;;;5013852;28;20018;-74
2022/07/28 01:39:53;;;;;;;9.02;7.25;;;15.50;99.90;;;;;;5013256;28;20022;-74
2022/07/28 01:42:22;;;;;;;9.35;6.95;;;15.50;99.90;;;;;;5013448;28;20029;-74
2022/07/28 01:44:49;;;;;;;14.20;8.35;;;15.50;99.90;;;;;;5012392;28;20018;-74
2022/07/28 01:47:17;;;;;;;10.95;8.27;;;15.40;99.90;;;;;;5013173;28;20026;-74
2022/07/28 01:49:44;;;;;;;11.63;8.63;;;15.40;99.90;;;;;;5012673;28;20049;-73
2022/07/28 01:52:10;;;;;;;10.32;8.25;;;15.40;99.90;;;;;;5012204;28;20022;-73
2022/07/28 01:54:39;;;;;;;8.75;7.13;;;15.40;99.90;;;;;;5011945;28;20025;-74
2022/07/28 01:57:09;;;;;;;9.32;7.43;;;15.30;99.90;;;;;;4994330;28;20030;-74
2022/07/28 01:59:37;;;;;;;11.13;8.30;;;15.40;99.90;;;;;;5011789;28;20100;-74
2022/07/28 02:02:04;;;;;;;9.50;8.15;;;15.30;99.90;;;;;;5011705;28;20056;-74
2022/07/28 02:04:34;;;;;;;9.65;7.30;;;15.30;99.90;;;;;;5011806;28;20037;-74
2022/07/28 02:07:02;;;;;;;11.38;8.50;;;15.30;99.90;;;;;;5011711;28;20022;-74
2022/07/28 02:09:30;;;;;;;10.00;8.23;;;15.30;99.90;;;;;;5011671;28;20467;-74
2022/07/28 02:11:57;;;;;;;9.55;7.40;;;15.30;99.90;;;;;;5011250;28;20032;-74
2022/07/28 02:14:26;;;;;;;9.25;7.88;;;15.20;99.90;;;;;;4999707;28;20022;-75
2022/07/28 02:16:55;;;;;;;11.55;8.07;;;15.20;99.90;;;;;;5003520;28;20665;-74
2022/07/28 02:19:23;;;;;;;10.68;8.27;;;15.20;99.90;;;;;;4993780;28;20025;-75
2022/07/28 02:21:49;;;;;;;10.02;8.10;;;15.20;99.90;;;;;;5011622;28;20029;-75
2022/07/28 02:24:19;;;;;;;11.25;8.63;;;15.10;99.90;;;;;;5011145;28;20073;-75
2022/07/28 02:26:49;;;;;;;10.88;8.45;;;15.10;99.90;;;;;;5011603;28;20089;-75
2022/07/28 02:29:17;;;;;;;9.57;8.30;;;15.10;99.90;;;;;;5011381;28;20427;-74
2022/07/28 02:31:51;;;;;;;10.98;9.18;;;15.00;99.90;;;;;;5011234;28;20034;-74
2022/07/28 02:34:21;;;;;;;14.02;9.02;;;15.00;99.90;;;;;;5011758;28;20355;-75
2022/07/28 02:36:53;;;;;;;12.80;8.82;;;15.00;99.90;;;;;;5011478;28;20037;-75
2022/07/28 02:39:25;;;;;;;14.68;9.00;;;15.00;99.90;;;;;;5011047;28;20356;-75
2022/07/28 02:42:07;;;;;;;16.00;9.75;;;15.00;99.90;;;;;;5011273;28;20030;-75
2022/07/28 02:44:39;;;;;;;10.98;9.15;;;15.00;99.90;;;;;;5011158;28;20472;-74
2022/07/28 02:47:09;;;;;;;11.73;9.18;;;14.90;99.90;;;;;;5011200;28;20071;-74
2022/07/28 02:49:35;;;;;;;10.27;8.88;;;14.90;99.90;;;;;;5010577;28;20036;-74
2022/07/28 02:52:05;;;;;;;13.48;9.82;;;14.80;99.90;;;;;;5011144;28;20022;-74
2022/07/28 02:54:31;;;;;;;10.45;9.35;;;14.80;99.90;;;;;;5010930;28;20045;-74
2022/07/28 02:56:58;;;;;;;10.85;9.73;;;14.80;99.90;;;;;;4993291;28;20026;-74
2022/07/28 02:59:26;;;;;;;14.65;9.85;;;14.80;99.90;;;;;;4993456;28;20383;-74
2022/07/28 03:01:52;;;;;;;14.93;10.05;;;14.80;99.90;;;;;;5010248;28;20061;-74
2022/07/28 03:07:04;;;;;;;12.10;10.30;;;14.70;99.90;;;;;;5011166;28;20077;-74
2022/07/28 03:09:30;;;;;;;12.85;10.70;;;14.70;99.90;;;;;;5010731;28;20034;-74
2022/07/28 03:11:56;;;;;;;13.57;9.80;;;14.70;99.90;;;;;;5009089;28;20426;-73
2022/07/28 03:14:21;;;;;;;12.65;10.50;;;14.70;99.90;;;;;;4990090;28;20022;-73
2022/07/28 03:16:47;;;;;;;11.80;10.32;;;14.70;99.90;;;;;;5004746;28;20065;-73
2022/07/28 03:19:12;;;;;;;12.52;9.80;;;14.70;99.90;;;;;;5010591;28;20069;-74
2022/07/28 03:21:40;;;;;;;12.18;10.52;;;14.70;99.90;;;;;;5010589;28;20061;-74
2022/07/28 03:24:08;;;;;;;14.48;11.10;;;14.70;99.90;;;;;;5010298;28;20136;-74
2022/07/28 03:26:46;;;;;;;17.70;10.85;;;14.70;99.90;;;;;;5004249;28;20045;-74
2022/07/28 03:29:13;;;;;;;17.83;11.45;;;14.60;99.90;;;;;;5004911;28;20123;-74
2022/07/28 03:31:41;;;;;;;12.52;10.88;;;14.70;99.90;;;;;;4992650;28;20356;-74
2022/07/28 03:34:09;;;;;;;13.68;11.35;;;14.60;99.90;;;;;;5010456;28;20037;-74
2022/07/28 03:36:39;;;;;;;12.70;11.40;;;14.60;99.90;;;;;;5010441;28;20030;-74
2022/07/28 03:39:08;;;;;;;14.80;11.00;;;14.60;99.90;;;;;;5010391;28;20041;-74
2022/07/28 03:41:35;;;;;;;13.40;11.80;;;14.60;99.90;;;;;;5010504;28;20564;-74
2022/07/28 03:44:01;;;;;;;15.13;12.52;;;14.60;99.90;;;;;;5010777;28;20475;-74
2022/07/28 03:46:27;;;;;;;13.45;12.05;;;14.60;99.90;;;;;;5010323;28;20026;-74
2022/07/28 03:48:53;;;;;;;13.82;11.90;;;14.50;99.90;;;;;;5010747;28;20030;-74
2022/07/28 03:51:19;;;;;;;14.43;11.77;;;14.50;99.90;;;;;;5010191;28;20034;-74
2022/07/28 03:53:48;;;;;;;15.10;12.07;;;14.50;99.90;;;;;;5010303;28;20101;-74
2022/07/28 03:56:14;;;;;;;13.32;11.45;;;14.50;99.90;;;;;;5010265;28;20859;-74
2022/07/28 03:58:39;;;;;;;16.23;12.10;;;14.40;99.90;;;;;;5010063;28;20475;-74
2022/07/28 04:01:05;;;;;;;15.35;12.07;;;14.40;99.90;;;;;;5010081;28;20052;-74
2022/07/28 04:03:31;;;;;;;17.90;13.07;;;14.40;99.90;;;;;;5010008;28;20105;-74
2022/07/28 04:05:57;;;;;;;13.57;12.18;;;14.40;99.90;;;;;;5010315;28;20383;-74
2022/07/28 04:08:22;;;;;;;18.77;13.88;;;14.40;99.90;;;;;;5013530;28;20040;-74
2022/07/28 04:10:48;;;;;;;15.07;12.35;;;14.40;99.90;;;;;;5013992;28;20029;-74
2022/07/28 04:13:14;;;;;;;15.55;13.07;;;14.40;99.90;;;;;;4996456;28;20030;-74
2022/07/28 04:15:39;;;;;;;14.88;13.35;;;14.40;99.90;;;;;;5003031;28;20037;-72
2022/07/28 04:18:07;;;;;;;14.07;12.60;;;14.50;99.90;;;;;;5013342;28;20033;-72
2022/07/28 04:20:32;;;;;;;20.25;13.60;;;14.50;99.90;;;;;;5004364;28;20041;-67
2022/07/28 04:22:58;;;;;;;15.02;13.15;;;14.50;99.90;;;;;;5009360;28;20026;-67
2022/07/28 04:25:26;;;;;;;17.55;13.60;;;14.50;99.90;;;;;;5009655;28;20022;-67
2022/07/28 04:27:52;;;;;;;19.67;13.05;;;14.50;99.90;;;;;;5010584;28;20041;-67
2022/07/28 04:30:20;;;;;;;17.15;13.77;;;14.50;99.90;;;;;;5012089;28;20417;-67
2022/07/28 04:32:48;;;;;;;16.20;12.60;;;14.50;99.90;;;;;;5008956;28;20025;-67
2022/07/28 04:35:15;;;;;;;18.20;13.93;;;14.50;99.90;;;;;;5011012;28;20029;-68
2022/07/28 04:37:41;;;;;;;17.65;13.77;;;14.50;99.90;;;;;;5011402;28;20024;-68
2022/07/28 04:40:09;;;;;;;20.27;14.20;;;14.50;99.90;;;;;;5009280;28;20410;-67
2022/07/28 04:42:36;;;;;;;17.15;13.27;;;14.50;99.90;;;;;;5011548;28;20022;-67
2022/07/28 04:45:03;;;;;;;16.00;13.52;;;14.50;99.90;;;;;;5008441;28;20022;-67
2022/07/28 04:47:29;;;;;;;17.98;13.57;;;14.50;99.90;;;;;;5008175;28;20030;-67
2022/07/28 04:49:55;;;;;;;15.88;13.20;;;14.60;99.90;;;;;;5009364;28;20037;-67
2022/07/28 04:52:21;;;;;;;16.27;12.60;;;14.60;99.90;;;;;;5008344;28;20569;-67
2022/07/28 04:54:47;;;;;;;14.70;13.15;;;14.60;99.90;;;;;;5011731;28;20072;-68
2022/07/28 04:57:13;;;;;;;16.90;14.15;;;14.60;99.90;;;;;;5008009;28;20475;-68
2022/07/28 04:59:38;;;;;;;17.48;13.95;;;14.70;99.90;;;;;;5007001;28;20018;-67
2022/07/28 05:02:04;;;;;;;15.30;13.75;;;14.70;99.90;;;;;;5025442;28;20053;-67
2022/07/28 05:04:30;;;;;;;17.23;13.15;;;14.70;99.90;;;;;;5026589;28;20030;-68
2022/07/28 05:06:55;;;;;;;20.73;14.32;;;14.80;99.90;;;;;;5029346;28;20025;-68
2022/07/28 05:09:21;;;;;;;19.00;13.73;;;14.80;99.90;;;;;;5011958;28;20041;-68
2022/07/28 05:11:46;;;;;;;18.33;12.95;;;14.90;99.90;;;;;;5018769;28;20147;-67
2022/07/28 05:14:13;;;;;;;17.20;13.35;;;15.00;99.90;;;;;;5012230;28;20117;-64
2022/07/28 05:16:39;;;;;;;17.73;12.80;;;15.00;99.90;;;;;;5018252;28;20033;-66
2022/07/28 05:19:04;;;;;;;15.10;12.50;;;15.10;99.90;;;;;;5011972;28;20026;-66
2022/07/28 05:21:30;;;;;;;17.50;12.10;;;15.20;99.90;;;;;;5026921;28;20032;-67
2022/07/28 05:23:55;;;;;;;20.67;13.23;;;15.30;99.90;;;;;;5018259;28;20370;-65
2022/07/28 05:26:21;;;;;;;16.33;12.90;;;15.30;99.90;;;;;;5019423;28;20116;-66
2022/07/28 05:28:46;;;;;;;17.42;12.55;;;15.40;99.90;;;;;;5025538;28;20764;-65
2022/07/28 05:31:13;;;;;;;16.85;12.07;;;15.50;99.90;;;;;;5018892;28;20081;-65
2022/07/28 05:33:38;;;;;;;19.20;12.15;;;15.60;99.90;;;;;;5014073;28;20475;-65
2022/07/28 05:36:04;;;;;;;17.30;12.18;;;15.60;99.90;;;;;;5024314;28;20030;-66
2022/07/28 05:38:31;;;;;;;15.15;11.57;;;15.70;99.90;;;;;;5013012;28;20085;-66
2022/07/28 05:40:57;;;;;;;20.48;11.65;;;15.80;99.90;;;;;;5013346;28;20022;-67
2022/07/28 05:43:23;;;;;;;14.18;11.88;;;15.80;99.90;;;;;;5012850;28;20062;-66
2022/07/28 05:45:49;;;;;;;14.13;11.65;;;15.90;99.90;;;;;;5013208;28;20054;-67
2022/07/28 05:48:23;;;;;;;16.92;11.32;;;16.00;99.90;;;;;;5012856;28;20030;-67
2022/07/28 05:50:49;;;;;;;17.27;11.40;;;16.10;99.90;;;;;;5013225;28;20018;-66
2022/07/28 05:53:15;;;;;;;16.50;11.10;;;16.20;99.90;;;;;;5012560;28;20034;-66
2022/07/28 05:55:41;;;;;;;12.35;10.55;;;16.20;99.90;;;;;;5012742;28;20441;-65
2022/07/28 05:58:06;;;;;;;17.45;11.30;;;16.30;99.90;;;;;;5012960;28;20109;-65
2022/07/28 06:00:32;;;;;;;15.88;10.98;;;16.40;99.90;;;;;;5007665;28;20062;-65
2022/07/28 06:03:01;;;;;;;15.48;10.93;;;16.50;99.90;;;;;;5006210;28;20056;-66
2022/07/28 06:05:31;;;;;;;13.20;9.98;;;16.60;99.90;;;;;;5004465;28;20045;-65
2022/07/28 06:07:58;;;;;;;13.82;9.77;;;16.70;99.90;;;;;;5009063;28;20159;-66
2022/07/28 06:10:25;;;;;;;18.23;10.10;;;16.80;99.90;;;;;;5002489;28;20026;-65
2022/07/28 06:12:53;;;;;;;17.92;10.20;;;16.90;99.90;;;;;;5003672;28;20050;-66
2022/07/28 06:15:21;;;;;;;15.60;10.02;;;17.10;99.90;;;;;;5007517;28;20157;-66
2022/07/28 06:17:51;;;;;;;10.70;8.80;;;17.20;99.90;;;;;;5006041;28;20026;-67
2022/07/28 06:20:17;;;;;;;11.23;8.10;;;17.30;99.90;;;;;;4991915;28;20025;-66
2022/07/28 06:22:49;;;;;;;11.00;7.78;;;17.50;99.90;;;;;;5007183;28;20048;-67
2022/07/28 06:25:17;;;;;;;10.70;7.50;;;17.60;99.90;;;;;;5003704;28;20026;-67
2022/07/28 06:27:44;;;;;;;12.05;7.40;;;17.70;99.90;;;;;;5007913;28;20022;-67
2022/07/28 06:30:10;;;;;;;10.13;7.30;;;17.90;99.90;;;;;;4991476;28;20521;-67
2022/07/28 06:32:36;;;;;;;12.48;7.28;;;18.00;99.90;;;;;;5020046;28;20066;-67
2022/07/28 06:35:03;;;;;;;9.75;6.88;;;18.10;99.90;;;;;;5010849;28;20182;-67
2022/07/28 06:37:29;;;;;;;9.82;6.93;;;18.20;99.90;;;;;;5011015;28;20018;-68
2022/07/28 06:39:54;;;;;;;9.85;6.90;;;18.40;99.90;;;;;;5011685;28;20081;-67
2022/07/28 06:42:20;;;;;;;7.55;6.47;;;18.40;99.90;;;;;;5003960;28;20101;-67
2022/07/28 06:44:45;;;;;;;10.70;6.80;;;18.50;99.90;;;;;;5018433;28;20021;-67
2022/07/28 06:47:11;;;;;;;10.75;6.55;;;18.50;99.90;;;;;;5019496;28;20030;-67
2022/07/28 06:49:36;;;;;;;9.82;6.97;;;18.60;99.90;;;;;;5017163;28;20022;-68
2022/07/28 06:52:02;;;;;;;9.30;6.40;;;18.70;99.90;;;;;;5012071;28;20022;-67
2022/07/28 06:54:27;;;;;;;14.27;7.32;;;18.80;99.90;;;;;;5005077;28;20467;-67
2022/07/28 06:56:53;;;;;;;8.35;6.20;;;18.90;99.90;;;;;;5011054;28;20375;-68
2022/07/28 06:59:18;;;;;;;6.80;5.68;;;18.90;99.90;;;;;;5017472;28;20478;-67
2022/07/28 07:01:48;;;;;;;11.93;6.35;;;19.00;99.90;;;;;;5020822;28;20115;-65
2022/07/28 07:04:14;;;;;;;12.77;6.20;;;19.00;99.90;;;;;;5010909;28;20362;-67
2022/07/28 07:06:40;;;;;;;8.20;6.10;;;19.10;99.90;;;;;;5010357;28;20026;-66
2022/07/28 07:09:06;;;;;;;8.07;5.65;;;19.20;99.90;;;;;;5017551;28;20037;-66
2022/07/28 07:11:32;;;;;;;7.47;5.57;;;19.20;99.90;;;;;;5007169;28;20030;-66
2022/07/28 07:13:57;;;;;;;9.18;5.97;;;19.30;99.90;;;;;;5008500;28;20348;-66
2022/07/28 07:16:23;;;;;;;9.35;5.68;;;19.30;99.90;;;;;;5011986;28;20037;-67
2022/07/28 07:18:51;;;;;;;11.35;6.53;;;19.40;99.90;;;;;;5009089;28;20061;-67
2022/07/28 07:21:20;;;;;;;11.60;6.20;;;19.50;99.90;;;;;;5004973;28;20076;-66
2022/07/28 07:23:46;;;;;;;8.65;6.15;;;19.60;99.90;;;;;;5006227;28;20498;-66
2022/07/28 07:26:12;;;;;;;8.48;5.95;;;19.60;99.90;;;;;;5003072;28;20010;-67
2022/07/28 07:28:38;;;;;;;8.30;5.93;;;19.70;99.90;;;;;;5006061;28;20463;-66
2022/07/28 07:31:03;;;;;;;8.98;5.70;;;19.70;99.90;;;;;;5013515;28;20030;-66
2022/07/28 07:33:29;;;;;;;14.48;6.93;;;19.80;99.90;;;;;;5006303;28;20053;-67
2022/07/28 07:35:55;;;;;;;12.30;6.15;;;19.80;99.90;;;;;;5009191;28;20030;-66
2022/07/28 07:38:22;;;;;;;8.25;6.38;;;19.80;99.90;;;;;;5009289;28;20045;-67
2022/07/28 07:40:49;;;;;;;10.75;6.53;;;19.80;99.90;;;;;;5008546;28;20483;-67
2022/07/28 07:43:16;;;;;;;11.18;6.63;;;19.90;99.90;;;;;;5010254;28;20157;-66
2022/07/28 07:45:42;;;;;;;11.57;6.47;;;19.90;99.90;;;;;;5011989;28;20022;-66
2022/07/28 07:48:07;;;;;;;12.98;6.28;;;19.90;99.90;;;;;;5011984;28;20382;-67
2022/07/28 07:50:33;;;;;;;9.95;6.00;;;20.00;99.90;;;;;;5011263;28;20079;-66
2022/07/28 07:52:59;;;;;;;9.35;5.70;;;20.00;99.90;;;;;;5009713;28;20113;-67
2022/07/28 07:55:25;;;;;;;7.25;6.25;;;20.10;99.90;;;;;;5012216;28;20021;-66
2022/07/28 07:57:51;;;;;;;8.95;5.32;;;20.20;99.90;;;;;;5010978;28;20347;-66
2022/07/28 08:00:17;;;;;;;9.52;6.00;;;20.20;99.90;;;;;;5011270;28;20463;-66
2022/07/28 08:02:42;;;;;;;12.05;5.80;;;20.30;99.90;;;;;;5013585;28;20145;-67
2022/07/28 08:05:09;;;;;;;9.45;6.20;;;20.40;99.90;;;;;;5010155;28;20050;-67
2022/07/28 08:07:35;;;;;;;10.88;5.47;;;20.50;99.90;;;;;;5012139;28;20026;-67
2022/07/28 08:10:01;;;;;;;8.18;5.70;;;20.60;99.90;;;;;;5008866;28;20104;-67
2022/07/28 08:12:26;;;;;;;9.40;5.55;;;20.60;99.90;;;;;;5011862;28;20022;-67
2022/07/28 08:14:53;;;;;;;9.02;5.82;;;20.70;99.90;;;;;;5011457;28;20045;-67
2022/07/28 08:17:19;;;;;;;8.52;6.18;;;20.70;99.90;;;;;;5017178;28;20720;-65
2022/07/28 08:19:44;;;;;;;11.18;6.05;;;20.70;99.90;;;;;;5008792;28;20041;-66
2022/07/28 08:22:10;;;;;;;9.13;5.45;;;20.80;99.90;;;;;;5012023;28;20026;-66
2022/07/28 08:24:35;;;;;;;12.02;6.10;;;20.80;99.90;;;;;;5011455;28;20356;-67
2022/07/28 08:27:01;;;;;;;9.88;5.70;;;20.90;99.90;;;;;;4994945;28;20057;-65
2022/07/28 08:29:27;;;;;;;9.48;6.25;;;20.90;99.90;;;;;;5008645;28;20150;-66
2022/07/28 08:31:52;;;;;;;11.52;6.30;;;21.00;99.90;;;;;;4996166;28;20147;-66
2022/07/28 08:34:18;;;;;;;8.45;5.68;;;21.00;99.90;;;;;;5012918;28;20033;-67
2022/07/28 08:36:44;;;;;;;8.30;5.38;;;21.10;99.90;;;;;;5014120;28;20022;-67
2022/07/28 08:39:09;;;;;;;8.90;5.75;;;21.10;99.90;;;;;;5015495;28;20101;-66
2022/07/28 08:41:45;;;;;;;16.45;5.75;;;21.30;99.90;;;;;;5015164;28;20034;-67
2022/07/28 08:44:17;;;;;;;10.40;5.78;;;21.30;99.90;;;;;;5005897;28;20356;-67
2022/07/28 08:46:44;;;;;;;8.60;5.57;;;21.40;99.90;;;;;;5025745;28;20026;-66
2022/07/28 08:49:12;;;;;;;8.38;5.60;;;21.50;99.90;;;;;;5015226;28;20049;-66
2022/07/28 08:51:40;;;;;;;6.40;5.05;;;21.50;99.90;;;;;;5014959;28;20050;-66
2022/07/28 08:54:07;;;;;;;9.15;5.22;;;21.50;99.90;;;;;;5013462;28;20029;-66
2022/07/28 08:56:38;;;;;;;9.55;5.75;;;21.70;99.90;;;;;;5013936;28;20104;-66
2022/07/28 08:59:04;;;;;;;7.63;5.60;;;21.80;99.90;;;;;;5014455;28;20057;-66
2022/07/28 09:01:30;;;;;;;7.32;5.70;;;21.80;99.90;;;;;;5013797;28;20526;-66
2022/07/28 09:03:56;;;;;;;8.25;5.57;;;22.00;99.90;;;;;;5021805;28;20391;-66
2022/07/28 09:06:23;;;;;;;8.98;5.80;;;22.00;99.90;;;;;;5006094;28;20474;-66
2022/07/28 09:08:48;;;;;;;9.45;5.43;;;22.00;99.90;;;;;;5016384;28;20033;-66
2022/07/28 09:11:14;;;;;;;8.57;5.28;;;22.10;99.90;;;;;;5013717;28;20040;-66
2022/07/28 09:13:40;;;;;;;9.52;5.82;;;22.00;99.90;;;;;;5010766;28;20030;-66
2022/07/28 09:16:05;;;;;;;9.23;5.45;;;22.20;99.90;;;;;;5013140;28;20544;-66
2022/07/28 09:18:31;;;;;;;7.57;5.00;;;22.30;99.90;;;;;;5013346;28;20026;-66
2022/07/28 09:20:56;;;;;;;7.63;5.07;;;22.30;99.90;;;;;;5013314;28;20136;-65
2022/07/28 09:23:22;;;;;;;7.00;4.85;;;22.40;99.90;;;;;;5012916;28;20017;-65
2022/07/28 09:25:48;;;;;;;11.93;5.30;;;22.50;99.90;;;;;;5012847;28;20138;-66
2022/07/28 09:28:16;;;;;;;12.00;5.47;;;22.60;99.90;;;;;;5012936;28;20211;-66
2022/07/28 09:30:44;;;;;;;8.25;4.35;;;22.80;99.90;;;;;;5013552;28;20026;-66
2022/07/28 09:33:26;;;;;;;7.85;4.20;;;23.00;99.90;;;;;;5012697;28;20018;-66
2022/07/28 09:35:56;;;;;;;11.50;4.45;;;23.30;99.90;;;;;;5012668;28;20033;-66
2022/07/28 09:38:26;;;;;;;8.95;4.05;;;23.50;99.90;;;;;;5012699;28;20060;-66
2022/07/28 09:41:05;;;;;;;8.60;4.88;;;23.70;99.90;;;;;;5012882;28;20463;-66
2022/07/28 09:43:31;;;;;;;8.40;4.60;;;23.90;99.90;;;;;;4999499;28;20041;-66
2022/07/28 09:46:05;;;;;;;7.40;4.68;;;24.10;99.90;;;;;;5012952;28;20482;-65
2022/07/28 09:48:31;;;;;;;6.22;4.47;;;24.30;99.90;;;;;;5012620;28;20482;-65
2022/07/28 09:51:11;;;;;;;8.50;4.03;;;24.50;99.90;;;;;;5032410;28;20026;-66
2022/07/28 09:53:36;;;;;;;10.00;4.20;;;24.70;99.90;;;;;;5013978;28;20030;-66
2022/07/28 09:56:02;;;;;;;6.72;4.10;;;24.90;99.90;;;;;;5023287;28;20418;-65
2022/07/28 09:58:28;;;;;;;5.80;4.20;;;25.20;99.90;;;;;;5021030;28;20033;-66
2022/07/28 10:01:08;;;;;;;6.65;4.70;;;25.40;99.90;;;;;;5021046;28;20058;-67
2022/07/28 10:03:36;;;;;;;6.03;3.97;;;25.50;99.90;;;;;;5016444;28;20069;-67
2022/07/28 10:06:07;;;;;;;9.50;4.25;;;25.50;99.90;;;;;;5015868;28;20022;-66
2022/07/28 10:08:48;;;;;;;7.20;4.55;;;25.40;99.90;;;;;;5015787;28;20406;-66
2022/07/28 10:11:21;;;;;;;7.72;4.00;;;25.50;99.90;;;;;;5015340;28;20462;-65
2022/07/28 10:14:06;;;;;;;7.83;3.67;;;25.50;99.90;;;;;;5006115;28;20546;-66
2022/07/28 10:16:40;;;;;;;7.22;3.47;;;25.60;99.90;;;;;;5014377;28;20264;-66
2022/07/28 10:19:06;;;;;;;6.20;3.20;;;25.70;99.90;;;;;;5013924;28;20026;-66
2022/07/28 10:21:38;;;;;;;6.85;3.28;;;25.90;99.90;;;;;;5014247;28;20029;-66
2022/07/28 10:24:05;;;;;;;5.95;3.33;;;26.10;99.90;;;;;;5013780;28;20025;-71
2022/07/28 10:26:36;;;;;;;8.27;3.22;;;26.30;99.90;;;;;;4995251;28;20033;-65
2022/07/28 10:29:05;;;;;;;6.63;3.60;;;26.40;99.90;;;;;;5012048;28;20044;-65
2022/07/28 10:31:40;;;;;;;15.93;3.85;;;26.40;99.90;;;;;;5012466;28;20033;-65
2022/07/28 10:34:13;;;;;;;5.78;3.17;;;26.50;99.90;;;;;;5012181;28;20060;-66
2022/07/28 10:36:40;;;;;;;7.55;3.53;;;26.60;99.90;;;;;;5012411;28;20028;-65
2022/07/28 10:39:12;;;;;;;7.35;3.50;;;26.60;99.90;;;;;;5012113;28;20048;-65
2022/07/28 10:41:40;;;;;;;6.45;2.97;;;26.60;99.90;;;;;;5008061;28;20106;-64
2022/07/28 10:44:08;;;;;;;8.07;3.30;;;26.60;99.90;;;;;;5002879;28;20049;-66
2022/07/28 10:46:35;;;;;;;5.43;2.85;;;26.80;99.90;;;;;;5010080;28;20381;-66
2022/07/28 10:49:01;;;;;;;9.63;3.55;;;26.80;99.90;;;;;;5003785;28;20105;-66
2022/07/28 10:51:27;;;;;;;9.68;3.28;;;26.90;99.90;;;;;;5018959;28;20026;-65
2022/07/28 10:54:16;;;;;;;7.28;3.25;;;26.80;99.90;;;;;;5012110;28;20034;-65
2022/07/28 10:57:01;;;;;;;5.97;2.72;;;26.80;99.90;;;;;;5011146;28;20039;-66
2022/07/28 10:59:47;;;;;;;4.80;2.72;;;26.90;99.90;;;;;;5018099;28;20490;-65
2022/07/28 11:02:51;;;;;;;7.10;3.15;;;27.20;99.90;;;;;;5014053;28;20053;-66
2022/07/28 11:05:37;;;;;;;5.45;2.95;;;27.10;99.90;;;;;;5015182;28;20026;-66
2022/07/28 11:08:15;;;;;;;5.45;2.60;;;27.10;99.90;;;;;;5018434;28;20029;-65
2022/07/28 11:10:51;;;;;;;5.28;2.97;;;27.30;99.90;;;;;;5018130;28;20138;-65
2022/07/28 11:13:27;;;;;;;6.57;2.50;;;27.50;99.90;;;;;;5010132;28;20451;-67
2022/07/28 11:15:52;;;;;;;9.35;3.22;;;27.70;99.90;;;;;;5015532;28;20053;-70
2022/07/28 11:18:20;;;;;;;6.75;2.92;;;27.90;99.90;;;;;;5020852;28;20057;-70
2022/07/28 11:20:52;;;;;;;6.18;2.83;;;27.90;99.90;;;;;;5010146;28;20529;-70
2022/07/28 11:23:36;;;;;;;6.00;3.22;;;27.90;99.90;;;;;;5009596;28;20025;-69
2022/07/28 11:26:21;;;;;;;4.45;2.63;;;28.10;99.90;;;;;;5025567;28;20025;-69
2022/07/28 11:28:58;;;;;;;;;;;28.30;99.90;;;;;;5026240;28;20138;-69
2022/07/28 11:31:43;;;;;;;5.65;2.67;;;28.20;99.90;;;;;;5022792;28;19905;-69
2022/07/28 11:34:11;;;;;;;7.53;3.05;;;28.30;99.90;;;;;;5009930;28;20041;-74
2022/07/28 11:36:58;;;;;;;6.80;2.10;;;28.50;99.90;;;;;;5009481;28;20025;-76
2022/07/28 11:39:26;;;;;;;7.82;2.75;;;28.70;99.90;;;;;;4999898;28;20096;-74
2022/07/28 11:41:52;;;;;;;7.43;2.60;;;28.50;99.90;;;;;;5009740;28;20097;-74
2022/07/28 11:44:28;;;;;;;6.68;2.50;;;28.40;99.90;;;;;;5009378;28;20053;-74
2022/07/28 11:47:23;;;;;;;5.18;2.20;;;28.40;99.90;;;;;;5008981;28;20506;-75
2022/07/28 11:50:11;;;;;;;7.68;2.42;;;28.50;99.90;;;;;;5009765;28;20110;-74
2022/07/28 11:52:38;;;;;;;5.35;2.65;;;28.40;99.90;;;;;;4996718;28;20032;-75
2022/07/28 11:55:05;;;;;;;9.18;2.28;;;28.40;99.90;;;;;;5009774;28;20131;-74
2022/07/28 11:57:39;;;;;;;5.97;2.40;;;28.40;99.90;;;;;;5009644;28;20022;-74
2022/07/28 12:00:05;;;;;;;3.40;2.55;;;28.60;99.90;;;;;;5009347;28;20029;-75
2022/07/28 12:02:32;;;;;;;5.38;2.72;;;28.90;99.90;;;;;;5009485;28;20046;-74
2022/07/28 12:05:09;;;;;;;7.20;2.50;;;28.80;99.90;;;;;;5009506;28;20058;-75
2022/07/28 12:07:44;;;;;;;5.15;2.60;;;29.00;99.90;;;;;;5009399;28;20072;-75
2022/07/28 12:10:22;;;;;;;4.43;2.40;;;29.10;99.90;;;;;;5009284;28;20097;-75
2022/07/28 12:12:52;;;;;;;9.40;3.45;;;29.20;99.90;;;;;;5007505;28;20026;-74
2022/07/28 12:15:19;;;;;;;8.40;2.55;;;29.10;99.90;;;;;;5000465;28;20372;-74
2022/07/28 12:17:46;;;;;;;4.63;2.22;;;29.20;99.90;;;;;;5023794;28;20077;-74
2022/07/28 12:20:17;;;;;;;4.07;2.17;;;29.20;99.90;;;;;;5009619;28;20049;-69
2022/07/28 12:23:03;;;;;;;5.60;2.47;;;29.50;99.90;;;;;;5011017;28;20022;-67
2022/07/28 12:25:28;;;;;;;4.75;2.53;;;29.50;99.90;;;;;;5010286;28;20541;-67
2022/07/28 12:27:55;;;;;;;2.78;2.22;;;29.40;99.90;;;;;;5011639;28;20025;-67
2022/07/28 12:30:26;;;;;;;5.50;2.20;;;29.50;99.90;;;;;;5008457;28;20036;-75
2022/07/28 12:32:52;;;;;;;8.73;2.78;;;29.40;99.90;;;;;;5013291;28;20022;-75
2022/07/28 12:35:19;;;;;;;7.68;2.42;;;29.50;99.90;;;;;;5014045;28;20026;-75
2022/07/28 12:37:48;;;;;;;7.38;2.88;;;29.70;99.90;;;;;;5013103;28;20037;-75
2022/07/28 12:40:18;;;;;;;10.57;2.30;;;29.90;99.20;;;;;;5012871;28;20486;-75
2022/07/28 12:42:49;;;;;;;8.68;2.50;;;30.00;99.20;;;;;;5023699;28;20040;-75
2022/07/28 12:45:15;;;;;;;10.40;2.88;;;30.00;98.10;;;;;;5023208;28;20549;-68
2022/07/28 12:47:41;;;;;;;3.80;2.20;;;30.00;99.20;;;;;;4995981;28;20033;-68
2022/07/28 12:50:19;;;;;;;5.45;2.30;;;29.90;98.80;;;;;;5023895;28;20033;-75
2022/07/28 12:53:02;;;;;;;4.35;2.30;;;30.10;98.00;;;;;;5021065;28;20065;-75
2022/07/28 12:55:29;;;;;;;7.10;2.78;;;30.10;98.40;;;;;;5012439;28;20374;-75